createdAt,value
2017-10-22T00:00:02.553Z,9.63
2017-10-22T00:00:06.782Z,9.63
2017-10-22T00:00:10.866Z,9.63
2017-10-22T00:00:14.678Z,9.62
2017-10-22T00:00:18.628Z,9.62
2017-10-22T00:00:22.585Z,9.62
2017-10-22T00:00:26.795Z,9.63
2017-10-22T00:00:31.007Z,9.63
2017-10-22T00:00:35.353Z,9.62
2017-10-22T00:00:39.581Z,9.62
2017-10-22T00:00:43.666Z,9.61
2017-10-22T00:00:47.343Z,9.61
2017-10-22T00:00:51.564Z,9.62
2017-10-22T00:00:55.796Z,9.62
2017-10-22T00:01:00.001Z,9.62
2017-10-22T00:01:03.947Z,9.61
2017-10-22T00:01:07.762Z,9.61
2017-10-22T00:01:11.976Z,9.61
2017-10-22T00:01:16.058Z,9.6
2017-10-22T00:01:20.146Z,9.61
2017-10-22T00:01:24.095Z,9.6
2017-10-22T00:01:28.036Z,9.61
2017-10-22T00:01:31.724Z,9.6
2017-10-22T00:01:35.674Z,9.59
2017-10-22T00:01:39.624Z,9.59
2017-10-22T00:01:43.571Z,9.59
2017-10-22T00:01:47.517Z,9.59
2017-10-22T00:01:51.345Z,9.59
2017-10-22T00:01:55.426Z,9.59
2017-10-22T00:01:59.246Z,9.59
2017-10-22T00:02:03.199Z,9.59
2017-10-22T00:02:07.275Z,9.59
2017-10-22T00:02:11.481Z,9.58
2017-10-22T00:02:15.433Z,9.58
2017-10-22T00:02:19.649Z,9.58
2017-10-22T00:02:23.593Z,9.58
2017-10-22T00:02:27.817Z,9.58
2017-10-22T00:02:31.645Z,9.57
2017-10-22T00:02:35.599Z,9.58
2017-10-22T00:02:39.677Z,9.57
2017-10-22T00:02:43.364Z,9.57
2017-10-22T00:02:47.432Z,9.57
2017-10-22T00:02:51.509Z,9.57
2017-10-22T00:02:55.718Z,9.56
2017-10-22T00:02:59.672Z,9.56
2017-10-22T00:03:03.822Z,9.56
2017-10-22T00:03:07.645Z,9.56
2017-10-22T00:03:11.599Z,9.57
2017-10-22T00:03:15.678Z,9.56
2017-10-22T00:03:19.490Z,9.55
2017-10-22T00:03:23.304Z,9.56
2017-10-22T00:03:27.526Z,9.56
2017-10-22T00:03:31.755Z,9.56
2017-10-22T00:03:35.847Z,9.56
2017-10-22T00:03:39.934Z,9.55
2017-10-22T00:03:44.015Z,9.56
2017-10-22T00:03:47.968Z,9.55
2017-10-22T00:03:52.190Z,9.56
2017-10-22T00:03:56.272Z,9.55
2017-10-22T00:04:00.215Z,9.55
2017-10-22T00:04:04.293Z,9.55
2017-10-22T00:04:08.244Z,9.55
2017-10-22T00:04:12.191Z,9.56
2017-10-22T00:04:16.264Z,9.54
2017-10-22T00:04:20.216Z,9.54
2017-10-22T00:04:24.295Z,9.54
2017-10-22T00:04:28.375Z,9.54
2017-10-22T00:04:32.461Z,9.54
2017-10-22T00:04:36.416Z,9.54
2017-10-22T00:04:40.761Z,9.55
2017-10-22T00:04:44.971Z,9.55
2017-10-22T00:04:49.050Z,9.55
2017-10-22T00:04:52.740Z,9.55
2017-10-22T00:04:56.697Z,9.54
2017-10-22T00:05:00.780Z,9.55
2017-10-22T00:05:05.514Z,9.55
2017-10-22T00:05:09.602Z,9.55
2017-10-22T00:05:13.674Z,9.55
2017-10-22T00:05:17.751Z,9.54
2017-10-22T00:05:21.978Z,9.53
2017-10-22T00:05:25.797Z,9.54
2017-10-22T00:05:30.004Z,9.54
2017-10-22T00:05:34.083Z,9.54
2017-10-22T00:05:38.162Z,9.54
2017-10-22T00:05:42.369Z,9.54
2017-10-22T00:05:46.318Z,9.55
2017-10-22T00:05:50.284Z,9.54
2017-10-22T00:05:54.363Z,9.54
2017-10-22T00:05:58.580Z,9.54
2017-10-22T00:06:02.794Z,9.55
2017-10-22T00:06:06.754Z,9.55
2017-10-22T00:06:11.096Z,9.54
2017-10-22T00:06:14.914Z,9.55
2017-10-22T00:06:18.991Z,9.55
2017-10-22T00:06:22.941Z,9.56
2017-10-22T00:06:26.885Z,9.56
2017-10-22T00:06:30.701Z,9.55
2017-10-22T00:06:34.792Z,9.56
2017-10-22T00:06:38.881Z,9.56
2017-10-22T00:06:42.698Z,9.56
2017-10-22T00:06:46.918Z,9.56
2017-10-22T00:06:51.257Z,9.55
2017-10-22T00:06:55.333Z,9.56
2017-10-22T00:06:59.177Z,9.55
2017-10-22T00:07:03.195Z,9.56
2017-10-22T00:07:07.006Z,9.57
2017-10-22T00:07:10.977Z,9.56
2017-10-22T00:07:15.058Z,9.57
2017-10-22T00:07:19.004Z,9.57
2017-10-22T00:07:22.951Z,9.57
2017-10-22T00:07:26.901Z,9.57
2017-10-22T00:07:30.722Z,9.57
2017-10-22T00:07:34.534Z,9.57
2017-10-22T00:07:38.351Z,9.58
2017-10-22T00:07:42.296Z,9.58
2017-10-22T00:07:46.245Z,9.58
2017-10-22T00:07:50.323Z,9.58
2017-10-22T00:07:54.671Z,9.58
2017-10-22T00:07:58.757Z,9.58
2017-10-22T00:08:02.712Z,9.58
2017-10-22T00:08:06.809Z,9.58
2017-10-22T00:08:10.758Z,9.58
2017-10-22T00:08:14.966Z,9.58
2017-10-22T00:08:18.924Z,9.59
2017-10-22T00:08:23.139Z,9.59
2017-10-22T00:08:26.955Z,9.58
2017-10-22T00:08:31.034Z,9.59
2017-10-22T00:08:34.988Z,9.59
2017-10-22T00:08:38.937Z,9.59
2017-10-22T00:08:43.146Z,9.59
2017-10-22T00:08:47.096Z,9.59
2017-10-22T00:08:51.183Z,9.6
2017-10-22T00:08:55.003Z,9.6
2017-10-22T00:08:59.208Z,9.6
2017-10-22T00:09:03.627Z,9.6
2017-10-22T00:09:07.570Z,9.6
2017-10-22T00:09:11.253Z,9.6
2017-10-22T00:09:15.203Z,9.6
2017-10-22T00:09:19.318Z,9.61
2017-10-22T00:09:23.526Z,9.6
2017-10-22T00:09:27.484Z,9.61
2017-10-22T00:09:31.566Z,9.6
2017-10-22T00:09:35.382Z,9.61
2017-10-22T00:09:39.331Z,9.61
2017-10-22T00:09:43.548Z,9.6
2017-10-22T00:09:47.777Z,9.61
2017-10-22T00:09:51.755Z,9.61
2017-10-22T00:09:55.704Z,9.61
2017-10-22T00:10:00.074Z,9.6
2017-10-22T00:10:04.212Z,9.6
2017-10-22T00:10:08.553Z,9.6
2017-10-22T00:10:12.638Z,9.6
2017-10-22T00:10:16.592Z,9.61
2017-10-22T00:10:20.533Z,9.61
2017-10-22T00:10:24.742Z,9.61
2017-10-22T00:10:28.822Z,9.6
2017-10-22T00:10:33.039Z,9.61
2017-10-22T00:10:36.981Z,9.6
2017-10-22T00:10:41.328Z,9.61
2017-10-22T00:10:45.417Z,9.61
2017-10-22T00:10:49.500Z,9.61
2017-10-22T00:10:53.739Z,9.61
2017-10-22T00:10:57.953Z,9.6
2017-10-22T00:11:02.412Z,9.61
2017-10-22T00:11:06.643Z,9.61
2017-10-22T00:11:10.855Z,9.61
2017-10-22T00:11:15.194Z,9.61
2017-10-22T00:11:19.273Z,9.61
2017-10-22T00:11:23.366Z,9.61
2017-10-22T00:11:27.455Z,9.61
2017-10-22T00:11:31.265Z,9.6
2017-10-22T00:11:35.476Z,9.6
2017-10-22T00:11:39.566Z,9.6
2017-10-22T00:11:43.645Z,9.59
2017-10-22T00:11:47.593Z,9.6
2017-10-22T00:11:51.837Z,9.61
2017-10-22T00:11:55.652Z,9.6
2017-10-22T00:11:59.870Z,9.6
2017-10-22T00:12:03.870Z,9.6
2017-10-22T00:12:07.818Z,9.6
2017-10-22T00:12:12.162Z,9.6
2017-10-22T00:12:15.843Z,9.6
2017-10-22T00:12:19.664Z,9.6
2017-10-22T00:12:23.619Z,9.6
2017-10-22T00:12:27.695Z,9.6
2017-10-22T00:12:31.520Z,9.6
2017-10-22T00:12:35.471Z,9.59
2017-10-22T00:12:39.815Z,9.59
2017-10-22T00:12:43.888Z,9.58
2017-10-22T00:12:47.703Z,9.59
2017-10-22T00:12:51.784Z,9.59
2017-10-22T00:12:55.601Z,9.59
2017-10-22T00:12:59.816Z,9.58
2017-10-22T00:13:04.326Z,9.57
2017-10-22T00:13:08.147Z,9.57
2017-10-22T00:13:12.229Z,9.59
2017-10-22T00:13:16.182Z,9.58
2017-10-22T00:13:20.404Z,9.57
2017-10-22T00:13:24.612Z,9.57
2017-10-22T00:13:28.556Z,9.58
2017-10-22T00:13:32.239Z,9.57
2017-10-22T00:13:35.923Z,9.58
2017-10-22T00:13:39.746Z,9.57
2017-10-22T00:13:43.961Z,9.57
2017-10-22T00:13:48.043Z,9.57
2017-10-22T00:13:52.263Z,9.57
2017-10-22T00:13:56.487Z,9.57
2017-10-22T00:14:00.578Z,9.57
2017-10-22T00:14:04.420Z,9.57
2017-10-22T00:14:08.632Z,9.57
2017-10-22T00:14:12.977Z,9.57
2017-10-22T00:14:16.933Z,9.57
2017-10-22T00:14:20.872Z,9.56
2017-10-22T00:14:24.688Z,9.55
2017-10-22T00:14:28.769Z,9.56
2017-10-22T00:14:32.715Z,9.56
2017-10-22T00:14:36.931Z,9.55
2017-10-22T00:14:40.758Z,9.56
2017-10-22T00:14:44.974Z,9.55
2017-10-22T00:14:49.315Z,9.55
2017-10-22T00:14:53.399Z,9.56
2017-10-22T00:14:57.216Z,9.55
2017-10-22T00:15:01.290Z,9.55
2017-10-22T00:15:05.233Z,9.55
2017-10-22T00:15:09.180Z,9.55
2017-10-22T00:15:13.271Z,9.55
2017-10-22T00:15:17.481Z,9.55
2017-10-22T00:15:21.561Z,9.55
2017-10-22T00:15:25.374Z,9.55
2017-10-22T00:15:29.580Z,9.54
2017-10-22T00:15:33.804Z,9.54
2017-10-22T00:15:38.024Z,9.55
2017-10-22T00:15:42.272Z,9.54
2017-10-22T00:15:46.349Z,9.54
2017-10-22T00:15:50.564Z,9.54
2017-10-22T00:15:54.509Z,9.54
2017-10-22T00:15:58.724Z,9.54
2017-10-22T00:16:02.766Z,9.54
2017-10-22T00:16:06.578Z,9.53
2017-10-22T00:16:10.530Z,9.54
2017-10-22T00:16:14.476Z,9.54
2017-10-22T00:16:18.562Z,9.53
2017-10-22T00:16:22.508Z,9.54
2017-10-22T00:16:26.455Z,9.53
2017-10-22T00:16:30.397Z,9.53
2017-10-22T00:16:34.355Z,9.54
2017-10-22T00:16:38.170Z,9.53
2017-10-22T00:16:42.114Z,9.52
2017-10-22T00:16:46.322Z,9.52
2017-10-22T00:16:50.145Z,9.52
2017-10-22T00:16:54.119Z,9.51
2017-10-22T00:16:57.932Z,9.51
2017-10-22T00:17:02.014Z,9.51
2017-10-22T00:17:06.246Z,9.51
2017-10-22T00:17:10.453Z,9.5
2017-10-22T00:17:14.398Z,9.5
2017-10-22T00:17:18.769Z,9.51
2017-10-22T00:17:22.839Z,9.5
2017-10-22T00:17:26.809Z,9.51
2017-10-22T00:17:31.165Z,9.5
2017-10-22T00:17:35.388Z,9.5
2017-10-22T00:17:39.205Z,9.49
2017-10-22T00:17:43.156Z,9.5
2017-10-22T00:17:47.241Z,9.5
2017-10-22T00:17:51.201Z,9.49
2017-10-22T00:17:54.885Z,9.5
2017-10-22T00:17:58.970Z,9.5
2017-10-22T00:18:03.154Z,9.49
2017-10-22T00:18:07.365Z,9.49
2017-10-22T00:18:11.459Z,9.49
2017-10-22T00:18:15.263Z,9.49
2017-10-22T00:18:19.340Z,9.48
2017-10-22T00:18:23.424Z,9.48
2017-10-22T00:18:27.512Z,9.48
2017-10-22T00:18:31.716Z,9.48
2017-10-22T00:18:35.806Z,9.48
2017-10-22T00:18:39.618Z,9.48
2017-10-22T00:18:43.698Z,9.48
2017-10-22T00:18:47.910Z,9.48
2017-10-22T00:18:51.984Z,9.48
2017-10-22T00:18:56.074Z,9.48
2017-10-22T00:19:00.042Z,9.47
2017-10-22T00:19:04.473Z,9.47
2017-10-22T00:19:08.702Z,9.47
2017-10-22T00:19:12.514Z,9.46
2017-10-22T00:19:16.850Z,9.47
2017-10-22T00:19:20.936Z,9.47
2017-10-22T00:19:24.886Z,9.47
2017-10-22T00:19:28.961Z,9.46
2017-10-22T00:19:32.905Z,9.45
2017-10-22T00:19:36.719Z,9.46
2017-10-22T00:19:40.668Z,9.46
2017-10-22T00:19:44.744Z,9.46
2017-10-22T00:19:48.551Z,9.46
2017-10-22T00:19:52.900Z,9.46
2017-10-22T00:19:56.721Z,9.46
2017-10-22T00:20:00.668Z,9.46
2017-10-22T00:20:04.350Z,9.45
2017-10-22T00:20:08.169Z,9.46
2017-10-22T00:20:11.988Z,9.46
2017-10-22T00:20:16.069Z,9.45
2017-10-22T00:20:20.017Z,9.45
2017-10-22T00:20:23.701Z,9.46
2017-10-22T00:20:27.518Z,9.45
2017-10-22T00:20:31.464Z,9.46
2017-10-22T00:20:35.276Z,9.46
2017-10-22T00:20:39.229Z,9.46
2017-10-22T00:20:43.186Z,9.45
2017-10-22T00:20:47.001Z,9.45
2017-10-22T00:20:51.220Z,9.46
2017-10-22T00:20:54.904Z,9.44
2017-10-22T00:20:58.974Z,9.46
2017-10-22T00:21:03.058Z,9.45
2017-10-22T00:21:07.163Z,9.45
2017-10-22T00:21:10.975Z,9.45
2017-10-22T00:21:15.325Z,9.45
2017-10-22T00:21:19.427Z,9.44
2017-10-22T00:21:23.511Z,9.45
2017-10-22T00:21:27.458Z,9.45
2017-10-22T00:21:31.540Z,9.44
2017-10-22T00:21:35.222Z,9.44
2017-10-22T00:21:39.302Z,9.45
2017-10-22T00:21:43.516Z,9.44
2017-10-22T00:21:47.743Z,9.44
2017-10-22T00:21:51.958Z,9.44
2017-10-22T00:21:55.904Z,9.44
2017-10-22T00:22:00.146Z,9.44
2017-10-22T00:22:04.362Z,9.45
2017-10-22T00:22:08.444Z,9.44
2017-10-22T00:22:12.526Z,9.44
2017-10-22T00:22:16.472Z,9.45
2017-10-22T00:22:20.682Z,9.44
2017-10-22T00:22:24.624Z,9.45
2017-10-22T00:23:00.673Z,9.44
2017-10-22T00:23:04.771Z,9.45
2017-10-22T00:23:08.711Z,9.44
2017-10-22T00:23:12.793Z,9.43
2017-10-22T00:23:16.742Z,9.43
2017-10-22T00:23:20.686Z,9.44
2017-10-22T00:23:24.766Z,9.43
2017-10-22T00:23:28.580Z,9.43
2017-10-22T00:23:32.798Z,9.43
2017-10-22T00:23:36.884Z,9.43
2017-10-22T00:23:41.100Z,9.42
2017-10-22T00:23:45.054Z,9.43
2017-10-22T00:23:48.998Z,9.43
2017-10-22T00:23:53.076Z,9.42
2017-10-22T00:23:57.159Z,9.43
2017-10-22T00:24:01.236Z,9.43
2017-10-22T00:24:05.316Z,9.42
2017-10-22T00:24:09.268Z,9.42
2017-10-22T00:24:13.237Z,9.43
2017-10-22T00:24:17.198Z,9.42
2017-10-22T00:24:21.144Z,9.43
2017-10-22T00:24:25.237Z,9.42
2017-10-22T00:24:29.210Z,9.43
2017-10-22T00:24:32.894Z,9.42
2017-10-22T00:24:36.970Z,9.43
2017-10-22T00:24:40.920Z,9.43
2017-10-22T00:24:44.868Z,9.42
2017-10-22T00:24:48.812Z,9.42
2017-10-22T00:24:52.761Z,9.43
2017-10-22T00:24:56.739Z,9.43
2017-10-22T00:25:00.819Z,9.43
2017-10-22T00:25:05.279Z,9.42
2017-10-22T00:25:09.363Z,9.42
2017-10-22T00:25:13.443Z,9.42
2017-10-22T00:25:17.262Z,9.42
2017-10-22T00:25:21.481Z,9.42
2017-10-22T00:25:25.436Z,9.41
2017-10-22T00:25:29.771Z,9.41
2017-10-22T00:25:33.711Z,9.42
2017-10-22T00:25:37.804Z,9.41
2017-10-22T00:25:42.010Z,9.41
2017-10-22T00:25:45.821Z,9.41
2017-10-22T00:25:49.780Z,9.41
2017-10-22T00:25:53.996Z,9.41
2017-10-22T00:25:57.951Z,9.41
2017-10-22T00:26:01.895Z,9.4
2017-10-22T00:26:05.992Z,9.41
2017-10-22T00:26:10.228Z,9.41
2017-10-22T00:26:14.303Z,9.4
2017-10-22T00:26:18.383Z,9.39
2017-10-22T00:26:22.736Z,9.4
2017-10-22T00:26:27.086Z,9.4
2017-10-22T00:26:31.175Z,9.4
2017-10-22T00:26:35.128Z,9.4
2017-10-22T00:26:39.471Z,9.41
2017-10-22T00:26:43.685Z,9.4
2017-10-22T00:26:47.785Z,9.4
2017-10-22T00:26:51.872Z,9.4
2017-10-22T00:26:55.816Z,9.4
2017-10-22T00:26:59.893Z,9.4
2017-10-22T00:27:03.910Z,9.4
2017-10-22T00:27:07.994Z,9.4
2017-10-22T00:27:11.945Z,9.4
2017-10-22T00:27:16.160Z,9.4
2017-10-22T00:27:19.975Z,9.4
2017-10-22T00:27:23.792Z,9.4
2017-10-22T00:27:27.742Z,9.4
2017-10-22T00:27:31.697Z,9.4
2017-10-22T00:27:35.916Z,9.4
2017-10-22T00:27:39.732Z,9.4
2017-10-22T00:27:43.820Z,9.4
2017-10-22T00:27:47.495Z,9.4
2017-10-22T00:27:51.570Z,9.4
2017-10-22T00:27:55.926Z,9.4
2017-10-22T00:27:59.736Z,9.41
2017-10-22T00:28:04.069Z,9.4
2017-10-22T00:28:07.883Z,9.4
2017-10-22T00:28:11.965Z,9.4
2017-10-22T00:28:15.914Z,9.39
2017-10-22T00:28:19.999Z,9.41
2017-10-22T00:28:23.819Z,9.4
2017-10-22T00:28:27.768Z,9.39
2017-10-22T00:28:31.847Z,9.4
2017-10-22T00:28:35.931Z,9.39
2017-10-22T00:28:40.003Z,9.39
2017-10-22T00:28:44.222Z,9.39
2017-10-22T00:28:48.438Z,9.4
2017-10-22T00:28:52.256Z,9.4
2017-10-22T00:28:56.207Z,9.39
2017-10-22T00:29:00.286Z,9.39
2017-10-22T00:29:04.779Z,9.39
2017-10-22T00:29:08.592Z,9.39
2017-10-22T00:29:12.562Z,9.39
2017-10-22T00:29:16.774Z,9.4
2017-10-22T00:29:21.116Z,9.39
2017-10-22T00:29:25.062Z,9.39
2017-10-22T00:29:29.003Z,9.39
2017-10-22T00:29:33.344Z,9.39
2017-10-22T00:29:37.031Z,9.39
2017-10-22T00:29:41.235Z,9.39
2017-10-22T00:29:45.188Z,9.39
2017-10-22T00:29:49.266Z,9.39
2017-10-22T00:29:53.491Z,9.39
2017-10-22T00:29:57.573Z,9.39
2017-10-22T00:30:01.383Z,9.39
2017-10-22T00:30:05.869Z,9.38
2017-10-22T00:30:09.944Z,9.39
2017-10-22T00:30:14.019Z,9.38
2017-10-22T00:30:18.370Z,9.38
2017-10-22T00:30:22.188Z,9.38
2017-10-22T00:30:26.003Z,9.38
2017-10-22T00:30:29.819Z,9.39
2017-10-22T00:30:33.768Z,9.38
2017-10-22T00:30:37.582Z,9.38
2017-10-22T00:30:41.534Z,9.37
2017-10-22T00:30:45.483Z,9.38
2017-10-22T00:30:49.567Z,9.37
2017-10-22T00:30:53.382Z,9.38
2017-10-22T00:30:57.329Z,9.38
2017-10-22T00:31:01.415Z,9.38
2017-10-22T00:31:05.363Z,9.38
2017-10-22T00:31:09.311Z,9.37
2017-10-22T00:31:13.259Z,9.37
2017-10-22T00:31:17.626Z,9.37
2017-10-22T00:31:21.570Z,9.37
2017-10-22T00:31:25.513Z,9.37
2017-10-22T00:31:29.605Z,9.37
2017-10-22T00:31:33.954Z,9.37
2017-10-22T00:31:37.907Z,9.37
2017-10-22T00:31:41.985Z,9.36
2017-10-22T00:31:45.939Z,9.36
2017-10-22T00:31:50.422Z,9.36
2017-10-22T00:31:54.237Z,9.35
2017-10-22T00:31:58.332Z,9.36
2017-10-22T00:32:02.277Z,9.36
2017-10-22T00:32:06.363Z,9.35
2017-10-22T00:32:10.189Z,9.36
2017-10-22T00:32:14.005Z,9.36
2017-10-22T00:32:18.231Z,9.36
2017-10-22T00:32:22.438Z,9.36
2017-10-22T00:32:26.650Z,9.36
2017-10-22T00:32:30.750Z,9.36
2017-10-22T00:32:34.569Z,9.37
2017-10-22T00:32:38.652Z,9.36
2017-10-22T00:32:42.749Z,9.36
2017-10-22T00:32:46.825Z,9.36
2017-10-22T00:32:50.908Z,9.36
2017-10-22T00:32:54.856Z,9.36
2017-10-22T00:32:58.955Z,9.36
2017-10-22T00:33:02.767Z,9.36
2017-10-22T00:33:06.868Z,9.36
2017-10-22T00:33:10.818Z,9.36
2017-10-22T00:33:14.785Z,9.36
2017-10-22T00:33:18.731Z,9.36
2017-10-22T00:33:22.805Z,9.37
2017-10-22T00:33:27.161Z,9.36
2017-10-22T00:33:31.240Z,9.36
2017-10-22T00:33:35.446Z,9.36
2017-10-22T00:33:39.667Z,9.36
2017-10-22T00:33:43.612Z,9.35
2017-10-22T00:33:47.686Z,9.35
2017-10-22T00:33:51.907Z,9.35
2017-10-22T00:33:55.861Z,9.36
2017-10-22T00:34:00.104Z,9.36
2017-10-22T00:34:03.918Z,9.35
2017-10-22T00:34:08.127Z,9.35
2017-10-22T00:34:12.072Z,9.35
2017-10-22T00:34:16.017Z,9.35
2017-10-22T00:34:20.098Z,9.35
2017-10-22T00:34:24.179Z,9.35
2017-10-22T00:34:27.864Z,9.35
2017-10-22T00:34:32.075Z,9.34
2017-10-22T00:34:35.893Z,9.34
2017-10-22T00:34:40.110Z,9.35
2017-10-22T00:34:44.059Z,9.34
2017-10-22T00:34:48.011Z,9.35
2017-10-22T00:34:51.965Z,9.34
2017-10-22T00:34:55.778Z,9.34
2017-10-22T00:34:59.595Z,9.33
2017-10-22T00:35:03.948Z,9.35
2017-10-22T00:35:07.913Z,9.34
2017-10-22T00:35:12.128Z,9.33
2017-10-22T00:35:15.939Z,9.33
2017-10-22T00:35:20.018Z,9.33
2017-10-22T00:35:24.094Z,9.33
2017-10-22T00:35:28.063Z,9.33
2017-10-22T00:35:31.742Z,9.33
2017-10-22T00:35:35.970Z,9.33
2017-10-22T00:35:40.179Z,9.33
2017-10-22T00:35:44.661Z,9.33
2017-10-22T00:35:48.501Z,9.32
2017-10-22T00:35:52.560Z,9.32
2017-10-22T00:35:56.771Z,9.32
2017-10-22T00:36:00.861Z,9.32
2017-10-22T00:36:05.108Z,9.32
2017-10-22T00:36:09.058Z,9.32
2017-10-22T00:36:12.871Z,9.31
2017-10-22T00:36:16.969Z,9.32
2017-10-22T00:36:21.053Z,9.3
2017-10-22T00:36:25.004Z,9.31
2017-10-22T00:36:29.226Z,9.31
2017-10-22T00:36:33.568Z,9.31
2017-10-22T00:36:37.656Z,9.31
2017-10-22T00:36:41.603Z,9.31
2017-10-22T00:36:45.419Z,9.31
2017-10-22T00:36:49.232Z,9.31
2017-10-22T00:36:53.311Z,9.31
2017-10-22T00:36:57.262Z,9.31
2017-10-22T00:37:01.096Z,9.3
2017-10-22T00:37:05.044Z,9.3
2017-10-22T00:37:09.262Z,9.31
2017-10-22T00:37:13.747Z,9.31
2017-10-22T00:37:17.695Z,9.3
2017-10-22T00:37:21.768Z,9.3
2017-10-22T00:37:25.451Z,9.3
2017-10-22T00:37:29.665Z,9.29
2017-10-22T00:37:33.609Z,9.29
2017-10-22T00:37:37.294Z,9.29
2017-10-22T00:37:41.245Z,9.29
2017-10-22T00:37:44.933Z,9.3
2017-10-22T00:37:49.404Z,9.29
2017-10-22T00:37:53.626Z,9.29
2017-10-22T00:37:57.715Z,9.3
2017-10-22T00:38:01.926Z,9.29
2017-10-22T00:38:06.183Z,9.29
2017-10-22T00:38:10.267Z,9.29
2017-10-22T00:38:14.478Z,9.29
2017-10-22T00:38:18.550Z,9.29
2017-10-22T00:38:22.544Z,9.29
2017-10-22T00:38:26.507Z,9.29
2017-10-22T00:38:30.585Z,9.29
2017-10-22T00:38:34.664Z,9.29
2017-10-22T00:38:38.484Z,9.29
2017-10-22T00:38:42.425Z,9.28
2017-10-22T00:38:46.507Z,9.29
2017-10-22T00:38:50.592Z,9.29
2017-10-22T00:38:54.672Z,9.29
2017-10-22T00:38:58.754Z,9.29
2017-10-22T00:39:02.985Z,9.29
2017-10-22T00:39:07.079Z,9.29
2017-10-22T00:39:11.301Z,9.28
2017-10-22T00:39:15.511Z,9.28
2017-10-22T00:39:19.473Z,9.28
2017-10-22T00:39:23.688Z,9.29
2017-10-22T00:39:27.905Z,9.28
2017-10-22T00:39:31.984Z,9.28
2017-10-22T00:39:36.078Z,9.29
2017-10-22T00:39:40.045Z,9.28
2017-10-22T00:39:44.395Z,9.28
2017-10-22T00:39:48.613Z,9.28
2017-10-22T00:39:52.689Z,9.27
2017-10-22T00:39:56.683Z,9.28
2017-10-22T00:40:00.737Z,9.28
2017-10-22T00:40:04.689Z,9.28
2017-10-22T00:40:08.781Z,9.28
2017-10-22T00:40:12.860Z,9.28
2017-10-22T00:40:16.941Z,9.28
2017-10-22T00:40:21.156Z,9.27
2017-10-22T00:40:24.841Z,9.27
2017-10-22T00:40:29.050Z,9.28
2017-10-22T00:40:33.000Z,9.27
2017-10-22T00:40:37.086Z,9.27
2017-10-22T00:40:41.435Z,9.28
2017-10-22T00:40:45.649Z,9.27
2017-10-22T00:40:49.593Z,9.28
2017-10-22T00:40:53.672Z,9.28
2017-10-22T00:40:57.747Z,9.27
2017-10-22T00:41:01.844Z,9.27
2017-10-22T00:41:05.791Z,9.27
2017-10-22T00:41:09.888Z,9.28
2017-10-22T00:41:14.228Z,9.28
2017-10-22T00:41:18.452Z,9.28
2017-10-22T00:41:22.273Z,9.28
2017-10-22T00:41:26.225Z,9.28
2017-10-22T00:41:30.306Z,9.28
2017-10-22T00:41:34.127Z,9.28
2017-10-22T00:41:38.077Z,9.28
2017-10-22T00:41:42.422Z,9.28
2017-10-22T00:41:46.238Z,9.29
2017-10-22T00:41:50.183Z,9.28
2017-10-22T00:41:54.007Z,9.29
2017-10-22T00:41:58.226Z,9.29
2017-10-22T00:42:02.457Z,9.28
2017-10-22T00:42:06.420Z,9.28
2017-10-22T00:42:10.635Z,9.28
2017-10-22T00:42:14.732Z,9.29
2017-10-22T00:42:18.945Z,9.28
2017-10-22T00:42:22.895Z,9.29
2017-10-22T00:42:26.980Z,9.29
2017-10-22T00:42:31.063Z,9.28
2017-10-22T00:42:35.288Z,9.29
2017-10-22T00:42:39.364Z,9.28
2017-10-22T00:42:43.442Z,9.28
2017-10-22T00:42:47.381Z,9.27
2017-10-22T00:42:51.459Z,9.28
2017-10-22T00:42:55.273Z,9.29
2017-10-22T00:42:59.222Z,9.28
2017-10-22T00:43:03.612Z,9.28
2017-10-22T00:43:07.956Z,9.28
2017-10-22T00:43:12.161Z,9.28
2017-10-22T00:43:16.110Z,9.28
2017-10-22T00:43:20.339Z,9.29
2017-10-22T00:43:24.285Z,9.28
2017-10-22T00:43:28.230Z,9.29
2017-10-22T00:43:32.448Z,9.28
2017-10-22T00:43:36.394Z,9.28
2017-10-22T00:43:40.342Z,9.28
2017-10-22T00:43:44.420Z,9.29
2017-10-22T00:43:48.374Z,9.27
2017-10-22T00:43:52.319Z,9.28
2017-10-22T00:43:56.397Z,9.27
2017-10-22T00:44:00.217Z,9.27
2017-10-22T00:44:04.594Z,9.28
2017-10-22T00:44:08.673Z,9.28
2017-10-22T00:44:13.024Z,9.28
2017-10-22T00:44:16.843Z,9.27
2017-10-22T00:44:20.658Z,9.28
2017-10-22T00:44:24.730Z,9.28
2017-10-22T00:44:29.216Z,9.28
2017-10-22T00:44:33.437Z,9.27
2017-10-22T00:44:37.382Z,9.28
2017-10-22T00:44:41.348Z,9.28
2017-10-22T00:44:45.165Z,9.28
2017-10-22T00:44:49.376Z,9.27
2017-10-22T00:44:53.725Z,9.28
2017-10-22T00:44:57.818Z,9.27
2017-10-22T00:45:01.908Z,9.28
2017-10-22T00:45:06.049Z,9.28
2017-10-22T00:45:10.149Z,9.28
2017-10-22T00:45:14.368Z,9.28
2017-10-22T00:45:18.315Z,9.29
2017-10-22T00:45:22.659Z,9.27
2017-10-22T00:45:26.739Z,9.28
2017-10-22T00:45:30.689Z,9.28
2017-10-22T00:45:35.028Z,9.28
2017-10-22T00:45:39.386Z,9.29
2017-10-22T00:45:43.883Z,9.28
2017-10-22T00:45:47.957Z,9.28
2017-10-22T00:45:52.180Z,9.27
2017-10-22T00:45:56.530Z,9.28
2017-10-22T00:46:00.743Z,9.28
2017-10-22T00:46:04.861Z,9.28
2017-10-22T00:46:08.691Z,9.29
2017-10-22T00:46:12.888Z,9.29
2017-10-22T00:46:16.970Z,9.28
2017-10-22T00:46:21.196Z,9.28
2017-10-22T00:46:25.407Z,9.28
2017-10-22T00:46:29.488Z,9.28
2017-10-22T00:46:33.171Z,9.29
2017-10-22T00:46:37.517Z,9.29
2017-10-22T00:46:41.866Z,9.28
2017-10-22T00:46:45.835Z,9.29
2017-10-22T00:46:49.656Z,9.29
2017-10-22T00:46:53.470Z,9.28
2017-10-22T00:46:57.680Z,9.27
2017-10-22T00:47:01.758Z,9.27
2017-10-22T00:47:05.578Z,9.28
2017-10-22T00:47:09.394Z,9.28
2017-10-22T00:47:13.346Z,9.28
2017-10-22T00:47:17.299Z,9.28
2017-10-22T00:47:21.381Z,9.28
2017-10-22T00:47:25.065Z,9.27
2017-10-22T00:47:29.017Z,9.28
2017-10-22T00:47:32.700Z,9.28
2017-10-22T00:47:36.780Z,9.28
2017-10-22T00:47:40.468Z,9.27
2017-10-22T00:47:44.424Z,9.28
2017-10-22T00:47:48.108Z,9.28
2017-10-22T00:47:51.921Z,9.27
2017-10-22T00:47:55.864Z,9.28
2017-10-22T00:47:59.685Z,9.27
2017-10-22T00:48:03.635Z,9.27
2017-10-22T00:48:07.577Z,9.27
2017-10-22T00:48:11.390Z,9.27
2017-10-22T00:48:15.608Z,9.28
2017-10-22T00:48:19.550Z,9.27
2017-10-22T00:48:23.493Z,9.28
2017-10-22T00:48:27.312Z,9.27
2017-10-22T00:48:31.259Z,9.27
2017-10-22T00:48:35.073Z,9.28
2017-10-22T00:48:39.019Z,9.28
2017-10-22T00:48:43.235Z,9.28
2017-10-22T00:48:47.323Z,9.28
2017-10-22T00:48:51.665Z,9.28
2017-10-22T00:48:55.483Z,9.28
2017-10-22T00:48:59.430Z,9.28
2017-10-22T00:49:03.248Z,9.27
2017-10-22T00:49:07.467Z,9.27
2017-10-22T00:49:11.289Z,9.27
2017-10-22T00:49:15.523Z,9.28
2017-10-22T00:49:19.467Z,9.27
2017-10-22T00:49:23.542Z,9.27
2017-10-22T00:49:27.621Z,9.27
2017-10-22T00:49:31.706Z,9.26
2017-10-22T00:49:35.647Z,9.27
2017-10-22T00:49:39.592Z,9.28
2017-10-22T00:49:43.538Z,9.27
2017-10-22T00:49:47.745Z,9.26
2017-10-22T00:49:51.566Z,9.27
2017-10-22T00:49:55.778Z,9.26
2017-10-22T00:49:59.591Z,9.27
2017-10-22T00:50:03.406Z,9.27
2017-10-22T00:50:07.491Z,9.26
2017-10-22T00:50:11.726Z,9.27
2017-10-22T00:50:15.805Z,9.27
2017-10-22T00:50:19.897Z,9.27
2017-10-22T00:50:23.843Z,9.26
2017-10-22T00:50:28.201Z,9.27
2017-10-22T00:50:32.150Z,9.26
2017-10-22T00:50:36.101Z,9.26
2017-10-22T00:50:39.922Z,9.26
2017-10-22T00:50:44.011Z,9.27
2017-10-22T00:50:48.102Z,9.27
2017-10-22T00:50:52.050Z,9.27
2017-10-22T00:50:55.994Z,9.26
2017-10-22T00:50:59.937Z,9.26
2017-10-22T00:51:04.172Z,9.25
2017-10-22T00:51:08.387Z,9.27
2017-10-22T00:51:12.468Z,9.27
2017-10-22T00:51:16.419Z,9.27
2017-10-22T00:51:20.237Z,9.26
2017-10-22T00:51:24.373Z,9.26
2017-10-22T00:51:28.581Z,9.26
2017-10-22T00:51:32.526Z,9.27
2017-10-22T00:51:36.488Z,9.27
2017-10-22T00:51:40.552Z,9.27
2017-10-22T00:51:44.509Z,9.27
2017-10-22T00:51:48.588Z,9.27
2017-10-22T00:51:52.410Z,9.27
2017-10-22T00:51:56.357Z,9.27
2017-10-22T00:52:00.431Z,9.28
2017-10-22T00:52:04.656Z,9.27
2017-10-22T00:52:08.868Z,9.27
2017-10-22T00:52:12.680Z,9.28
2017-10-22T00:52:17.031Z,9.28
2017-10-22T00:52:20.844Z,9.28
2017-10-22T00:52:24.807Z,9.27
2017-10-22T00:52:28.760Z,9.28
2017-10-22T00:52:32.974Z,9.28
2017-10-22T00:52:37.445Z,9.28
2017-10-22T00:52:41.392Z,9.28
2017-10-22T00:52:45.609Z,9.28
2017-10-22T00:52:49.292Z,9.28
2017-10-22T00:52:53.513Z,9.29
2017-10-22T00:52:58.001Z,9.28
2017-10-22T00:53:02.086Z,9.29
2017-10-22T00:53:06.168Z,9.29
2017-10-22T00:53:10.400Z,9.29
2017-10-22T00:53:14.220Z,9.29
2017-10-22T00:53:18.559Z,9.29
2017-10-22T00:53:22.507Z,9.29
2017-10-22T00:53:26.456Z,9.29
2017-10-22T00:53:30.673Z,9.28
2017-10-22T00:53:34.624Z,9.29
2017-10-22T00:53:38.457Z,9.29
2017-10-22T00:53:42.536Z,9.29
2017-10-22T00:53:46.753Z,9.29
2017-10-22T00:53:51.101Z,9.29
2017-10-22T00:53:55.188Z,9.29
2017-10-22T00:53:58.999Z,9.29
2017-10-22T00:54:03.413Z,9.3
2017-10-22T00:54:07.493Z,9.3
2017-10-22T00:54:11.470Z,9.3
2017-10-22T00:54:15.409Z,9.3
2017-10-22T00:54:19.495Z,9.3
2017-10-22T00:54:23.593Z,9.31
2017-10-22T00:54:27.686Z,9.31
2017-10-22T00:54:31.899Z,9.3
2017-10-22T00:54:35.849Z,9.3